Latest Weather Observations for Morawa Airport

IDW60801

Issued at 3:32 pm WST Friday 27 March 2015 (issued every 30 minutes, with the page automatically refreshed every 10 minutes)

About weather observations | Map of weather stations | Latest weather observations for WA | Other Formats
Station Details ID: 008296 Name: MORAWA AIRPORT Lat: -29.20 Lon: 116.02 Height: 271.4 m
Data from the previous 72 hours. | See also: Recent months at Morawa Airport
Date/Time
WST
Temp
°C
App
Temp
°C
Dew
Point
Rel
Hum
%
Delta-T
°C
Wind Press
QNH
hPa
Press
MSL
hPa
Rain
since 9 am
mm
Dir
 
Spd
km/h
Gust
km/h
Spd
kts
Gust
kts
27/03:30pm 29.4 28.0 12.3 34 10.1 S 11 17 6 9 1016.4 1014.9 0.0
27/03:00pm 29.2 28.2 12.2 35 10.0 WSW 9 17 5 9 1016.7 1015.2 0.0
27/02:30pm 28.9 27.3 12.8 37 9.6 SW 13 22 7 12 1016.9 1015.4 0.0
27/02:00pm 29.4 29.2 13.6 38 9.5 SW 7 17 4 9 1017.1 1015.6 0.0
27/01:30pm 28.1 26.6 13.2 39 8.9 SSW 13 20 7 11 1017.7 1016.2 0.0
27/01:00pm 27.7 26.9 14.0 43 8.3 W 11 20 6 11 1018.1 1016.6 0.0
27/12:30pm 27.0 27.0 15.1 48 7.3 W 9 19 5 10 1018.6 1017.1 0.0
27/12:00pm 26.4 26.4 15.1 49 6.9 W 9 15 5 8 1019.1 1017.6 0.0
27/11:30am 25.7 26.3 15.4 53 6.3 WNW 6 13 3 7 1019.4 1017.9 0.0
27/11:00am 25.4 26.6 14.8 52 6.4 WSW 2 6 1 3 1019.6 1018.1 0.0
27/10:30am 24.2 24.7 14.9 56 5.6 NW 6 7 3 4 1020.1 1018.6 0.0
27/10:00am 23.3 23.8 15.1 60 4.9 SW 6 13 3 7 1020.5 1019.0 0.0
27/09:30am 22.9 23.5 15.2 62 4.6 ESE 6 9 3 5 1020.8 1019.4 0.0
27/09:00am 22.0 21.4 13.6 59 4.9 ESE 9 15 5 8 1020.9 1019.5 0.0
27/08:30am 19.9 19.7 13.6 67 3.7 SE 7 9 4 5 1021.0 1019.6 0.0
27/08:00am 20.2 19.0 12.7 62 4.3 SE 11 15 6 8 1020.9 1019.5 0.0
27/07:30am 19.1 19.0 13.3 69 3.3 SSE 6 9 3 5 1020.6 1019.1 0.0
27/07:00am 18.0 18.3 13.3 74 2.7 SSW 4 6 2 3 1020.6 1019.1 0.0
27/06:30am 16.9 17.1 13.2 79 2.1 SSW 4 4 2 2 1020.3 1018.8 0.0
27/06:00am 16.7 16.6 13.2 80 2.0 SSW 6 6 3 3 1020.2 1018.7 0.0
27/05:30am 16.6 17.5 12.9 79 2.1 CALM 0 0 0 0 1020.0 1018.5 0.0
27/05:00am 17.0 17.8 12.7 76 2.4 CALM 0 0 0 0 1019.8 1018.3 0.0
27/04:30am 17.3 18.1 12.6 74 2.6 CALM 0 0 0 0 1019.6 1018.1 0.0
27/04:00am 17.9 18.0 12.6 71 3.0 SSW 4 4 2 2 1019.6 1018.1 0.0
27/03:30am 18.2 17.7 12.6 70 3.2 SW 7 9 4 5 1019.7 1018.2 0.0
27/03:00am 18.4 18.7 13.3 72 2.9 SW 4 6 2 3 1019.6 1018.1 0.0
27/02:30am 18.9 19.0 14.0 73 2.8 NW 6 6 3 3 1019.8 1018.3 0.0
27/02:00am 19.3 20.1 14.8 75 2.7 NW 4 6 2 3 1019.9 1018.4 0.0
27/01:30am 19.7 20.8 14.7 73 3.0 NW 2 4 1 2 1020.1 1018.6 0.0
27/01:00am 20.3 20.8 15.1 72 3.1 NW 6 6 3 3 1020.4 1018.9 0.0
27/12:30am 20.3 20.3 15.1 72 3.1 NNW 9 9 5 5 1020.4 1018.9 0.0
27/12:00am 20.9 21.2 15.0 69 3.5 NW 7 9 4 5 1020.4 1018.9 0.0
 
Date/Time
WST
Temp
°C
App
Temp
°C
Dew
Point
Rel
Hum
%
Delta-T
°C
Wind Press
QNH
hPa
Press
MSL
hPa
Rain
since 9 am
mm
Dir
 
Spd
km/h
Gust
km/h
Spd
kts
Gust
kts
26/11:30pm 21.0 21.3 14.6 67 3.8 NW 6 6 3 3 1020.4 1018.9 0.0
26/11:00pm 21.6 22.3 14.5 64 4.2 NW 4 6 2 3 1020.3 1018.8 0.0
26/10:30pm 22.0 21.9 13.4 58 5.0 NNW 6 7 3 4 1020.6 1019.1 0.0
26/10:00pm 23.3 22.9 12.9 52 6.0 N 7 9 4 5 1020.6 1019.1 0.0
26/09:30pm 23.3 22.5 11.7 48 6.6 ENE 7 13 4 7 1020.8 1019.4 0.0
26/09:00pm 23.2 22.7 12.2 50 6.3 NNE 6 7 3 4 1020.6 1019.1 0.0
26/08:30pm 23.4 22.9 12.1 49 6.5 NE 6 9 3 5 1020.4 1018.9 0.0
26/08:00pm 23.2 22.7 12.2 50 6.3 NNE 6 6 3 3 1020.3 1018.8 0.0
26/07:30pm 23.7 23.4 11.4 46 7.0 NNE 4 6 2 3 1019.8 1018.3 0.0
26/07:00pm 25.3 24.5 11.1 41 8.1 NNE 6 9 3 5 1019.3 1017.8 0.0
26/06:30pm 26.2 24.9 11.2 39 8.6 N 9 13 5 7 1019.1 1017.6 0.0
26/06:00pm 26.8 24.6 10.9 37 9.1 NNE 13 17 7 9 1019.0 1017.5 0.0
26/05:30pm 27.3 24.6 10.5 35 9.6 NNE 15 22 8 12 1018.4 1016.9 0.0
26/05:00pm 27.5 24.6 9.8 33 10.0 NE 15 26 8 14 1018.8 1017.3 0.0
26/04:30pm 28.6 24.8 9.8 31 10.6 NNE 20 30 11 16 1018.7 1017.2 0.0
26/04:00pm 28.7 24.8 9.4 30 10.8 NE 20 30 11 16 1018.5 1017.0 0.0
26/03:30pm 28.2 23.4 9.0 30 10.7 NE 24 35 13 19 1018.5 1017.0 0.0
26/03:00pm 28.4 23.6 8.7 29 10.9 N 24 33 13 18 1018.4 1016.9 0.0
26/02:30pm 29.5 23.6 9.1 28 11.5 NNE 30 44 16 24 1018.6 1017.1 0.0
26/02:06pm 29.0 23.2 8.1 27 11.5 NE 28 46 15 25 1018.8 1017.3 0.0
26/02:00pm 28.9 23.5 8.0 27 11.5 NE 26 39 14 21 1018.9 1017.4 0.0
26/01:30pm 28.9 23.6 8.6 28 11.3 NNE 26 41 14 22 1019.4 1017.9 0.0
26/01:00pm 29.0 23.8 8.7 28 11.3 NE 26 33 14 18 1019.5 1018.0 0.0
26/12:30pm 28.6 23.7 8.3 28 11.2 NE 24 39 13 21 1019.8 1018.3 0.0
26/12:00pm 28.8 24.0 9.0 29 11.1 NE 24 33 13 18 1019.9 1018.4 0.0
26/11:30am 26.6 21.2 8.1 31 10.1 NE 26 35 14 19 1020.3 1018.8 0.0
26/11:00am 27.9 21.8 8.2 29 10.8 NNE 30 43 16 23 1020.9 1019.5 0.0
26/10:30am 27.3 20.6 8.2 30 10.5 NE 33 44 18 24 1020.9 1019.5 0.0
26/10:00am 25.9 19.4 8.0 32 9.7 ENE 32 43 17 23 1020.9 1019.5 0.0
26/09:30am 24.0 17.0 6.7 33 9.1 ENE 33 44 18 24 1021.1 1019.7 0.0
26/09:00am 23.5 16.7 6.7 34 8.7 ENE 32 43 17 23 1021.5 1020.0 0.0
26/08:30am 21.8 15.6 6.1 36 8.0 ENE 28 35 15 19 1021.6 1020.1 0.0
26/08:00am 21.1 16.3 5.5 36 7.8 ENE 20 30 11 16 1021.6 1020.1 0.0
26/07:30am 20.8 16.5 5.2 36 7.8 ENE 17 22 9 12 1021.7 1020.2 0.0
26/07:00am 20.4 16.3 4.4 35 7.8 ENE 15 22 8 12 1021.6 1020.1 0.0
26/06:30am 20.5 16.4 4.1 34 8.0 ENE 15 22 8 12 1021.4 1019.9 0.0
26/06:00am 20.8 16.3 4.0 33 8.2 ENE 17 28 9 15 1020.6 1019.1 0.0
26/05:30am 21.2 16.7 4.3 33 8.3 ENE 17 26 9 14 1020.4 1018.9 0.0
26/05:00am 21.2 16.8 4.7 34 8.2 E 17 26 9 14 1020.1 1018.6 0.0
26/04:30am 21.3 17.3 4.8 34 8.2 ENE 15 20 8 11 1020.1 1018.6 0.0
26/04:00am 21.6 17.6 5.1 34 8.2 ENE 15 20 8 11 1020.1 1018.6 0.0
26/03:30am 22.0 17.6 5.0 33 8.5 ENE 17 24 9 13 1020.0 1018.5 0.0
26/03:00am 22.2 17.9 5.2 33 8.5 ENE 17 24 9 13 1020.0 1018.5 0.0
26/02:30am 22.4 17.6 4.9 32 8.8 ENE 19 26 10 14 1020.0 1018.5 0.0
26/02:00am 22.5 17.7 4.5 31 8.9 ENE 19 28 10 15 1020.1 1018.6 0.0
26/01:30am 22.7 18.3 4.7 31 9.0 E 17 22 9 12 1020.2 1018.7 0.0
26/01:00am 22.8 18.9 5.3 32 8.8 E 15 19 8 10 1020.4 1018.9 0.0
26/12:30am 23.3 19.4 5.2 31 9.2 E 15 22 8 12 1020.6 1019.1 0.0
26/12:00am 23.7 19.5 3.6 27 9.9 E 15 20 8 11 1020.8 1019.4 0.0
 
Date/Time
WST
Temp
°C
App
Temp
°C
Dew
Point
Rel
Hum
%
Delta-T
°C
Wind Press
QNH
hPa
Press
MSL
hPa
Rain
since 9 am
mm
Dir
 
Spd
km/h
Gust
km/h
Spd
kts
Gust
kts
25/11:30pm 23.9 18.9 3.8 27 10.0 E 19 24 10 13 1020.6 1019.1 0.0
25/11:00pm 24.0 19.0 1.6 23 10.7 E 17 22 9 12 1020.5 1019.0 0.0
25/10:30pm 24.1 18.9 0.4 21 11.1 E 17 24 9 13 1020.6 1019.1 0.0
25/10:00pm 24.4 18.9 0.7 21 11.1 E 19 24 10 13 1020.5 1019.0 0.0
25/09:30pm 24.3 19.6 1.2 22 11.0 E 15 20 8 11 1020.5 1019.0 0.0
25/09:00pm 22.8 19.3 3.4 28 9.5 ESE 11 13 6 7 1020.3 1018.8 0.0
25/08:30pm 23.1 19.6 3.6 28 9.6 ESE 11 11 6 6 1020.1 1018.6 0.0
25/08:00pm 24.6 20.6 2.7 24 10.7 ESE 13 17 7 9 1019.7 1018.2 0.0
25/07:30pm 25.4 21.0 2.8 23 11.1 ESE 15 19 8 10 1019.4 1017.9 0.0
25/07:00pm 26.1 20.8 2.1 21 11.7 ESE 19 26 10 14 1018.9 1017.4 0.0
25/06:30pm 26.9 21.2 2.7 21 12.0 ESE 22 28 12 15 1018.6 1017.1 0.0
25/06:00pm 27.8 21.8 3.5 21 12.3 ESE 24 32 13 17 1018.4 1016.9 0.0
25/05:30pm 28.6 23.1 4.2 21 12.6 E 22 30 12 16 1018.3 1016.8 0.0
25/05:00pm 29.1 23.3 4.6 21 12.7 E 24 37 13 20 1018.3 1016.8 0.0
25/04:30pm 29.3 24.2 6.0 23 12.4 ESE 22 32 12 17 1018.4 1016.9 0.0
25/04:00pm 29.5 24.3 5.6 22 12.7 ESE 22 35 12 19 1018.5 1017.0 0.0
25/03:30pm 29.6 25.0 6.3 23 12.5 E 20 37 11 20 1018.7 1017.2 0.0
25/03:00pm 29.1 24.0 5.9 23 12.3 ESE 22 33 12 18 1018.9 1017.4 0.0
25/02:30pm 29.4 24.8 6.7 24 12.3 E 20 35 11 19 1019.1 1017.6 0.0
25/02:00pm 28.6 23.9 6.1 24 11.9 E 20 33 11 18 1019.5 1018.0 0.0
25/01:30pm 28.8 23.6 5.6 23 12.3 E 22 32 12 17 1019.8 1018.3 0.0
25/01:00pm 28.0 22.1 5.6 24 11.8 E 26 37 14 20 1020.2 1018.7 0.0
25/12:30pm 27.6 21.3 5.8 25 11.5 E 28 43 15 23 1020.8 1019.4 0.0
25/12:00pm 27.4 21.6 6.2 26 11.2 E 26 37 14 20 1021.3 1019.8 0.0
25/11:30am 26.7 21.4 6.7 28 10.6 E 24 37 13 20 1021.6 1020.1 0.0
25/11:00am 26.2 20.5 6.8 29 10.3 E 26 39 14 21 1022.0 1020.5 0.0
25/10:30am 25.2 19.3 7.3 32 9.5 E 28 41 15 22 1022.3 1020.8 0.0
25/10:00am 24.1 18.7 8.1 36 8.6 E 26 37 14 20 1022.5 1021.0 0.0
25/09:30am 23.5 19.1 8.8 39 8.0 E 22 33 12 18 1022.8 1021.3 0.0
25/09:00am 21.8 18.2 10.0 47 6.5 E 19 26 10 14 1022.8 1021.3 0.0
25/08:30am 20.5 16.5 10.3 52 5.6 E 22 28 12 15 1022.8 1021.3 0.0
25/08:00am 18.8 14.6 9.6 55 4.9 E 22 30 12 16 1022.7 1021.2 0.0
25/07:30am 17.8 14.1 9.4 58 4.5 ESE 19 24 10 13 1022.5 1021.0 0.0
25/07:00am 16.8 14.1 9.0 60 4.1 ESE 13 20 7 11 1022.2 1020.7 0.0
25/06:30am 15.9 13.2 9.1 64 3.5 ESE 13 19 7 10 1022.1 1020.6 0.0
25/06:00am 15.7 13.4 8.9 64 3.5 E 11 13 6 7 1021.8 1020.3 0.0
25/05:30am 16.1 13.7 8.6 61 3.9 E 11 15 6 8 1021.3 1019.8 0.0
25/05:00am 15.3 13.8 8.5 64 3.5 SE 6 7 3 4 1021.0 1019.6 0.0
25/04:30am 15.9 14.0 8.9 63 3.6 SE 9 11 5 6 1020.7 1019.3 0.0
25/04:00am 15.8 14.1 8.3 61 3.8 SSE 7 9 4 5 1020.5 1019.0 0.0
25/03:30am 16.5 14.9 8.2 58 4.3 SE 6 7 3 4 1020.4 1018.9 0.0
25/03:00am 17.1 15.4 8.5 57 4.5 ESE 7 11 4 6 1020.4 1018.9 0.0
25/02:30am 17.1 15.1 8.5 57 4.5 E 9 13 5 7 1020.3 1018.8 0.0
25/02:00am 16.8 14.7 6.6 51 5.1 ESE 7 9 4 5 1020.4 1018.9 0.0
25/01:30am 17.8 15.1 5.7 45 6.0 E 9 15 5 8 1020.5 1019.0 0.0
25/01:00am 17.7 14.1 3.2 38 6.8 ESE 11 11 6 6 1020.5 1019.0 0.0
25/12:30am 18.9 15.3 2.7 34 7.6 ESE 11 13 6 7 1020.5 1019.0 0.0
25/12:00am 19.5 15.8 2.4 32 8.0 ESE 11 15 6 8 1020.5 1019.0 0.0
 
Date/Time
WST
Temp
°C
App
Temp
°C
Dew
Point
Rel
Hum
%
Delta-T
°C
Wind Press
QNH
hPa
Press
MSL
hPa
Rain
since 9 am
mm
Dir
 
Spd
km/h
Gust
km/h
Spd
kts
Gust
kts
24/11:30pm 19.2 15.8 2.1 32 7.9 ESE 9 11 5 6 1020.5 1019.0 0.0
24/11:00pm 20.6 16.8 2.0 29 8.7 E 11 17 6 9 1020.6 1019.1 0.0
24/10:30pm 21.3 15.8 1.6 27 9.2 ESE 20 28 11 15 1020.7 1019.3 0.0
24/10:00pm 22.1 16.2 1.7 26 9.6 SE 22 32 12 17 1020.2 1018.7 0.0
24/09:30pm 22.4 16.9 2.0 26 9.7 SE 20 28 11 15 1020.0 1018.5 0.0
24/09:00pm 22.9 17.6 2.9 27 9.7 SE 20 28 11 15 1019.8 1018.3 0.0
24/08:30pm 23.2 18.3 4.2 29 9.5 SE 19 24 10 13 1019.6 1018.1 0.0
24/08:00pm 23.8 18.8 4.7 29 9.6 SE 20 28 11 15 1019.2 1017.7 0.0
24/07:30pm 24.0 19.7 5.4 30 9.5 SSE 17 20 9 11 1018.8 1017.3 0.0
24/07:00pm 24.8 20.6 5.6 29 9.9 SSE 17 22 9 12 1018.6 1017.1 0.0
24/06:30pm 25.5 20.3 5.7 28 10.3 SSE 22 32 12 17 1018.2 1016.7 0.0
24/06:00pm 26.4 20.8 5.4 26 10.9 SSE 24 33 13 18 1017.9 1016.4 0.0
24/05:30pm 27.2 22.1 6.0 26 11.2 SE 22 28 12 15 1017.7 1016.2 0.0
24/05:00pm 27.7 22.6 5.9 25 11.5 SE 22 30 12 16 1017.5 1016.0 0.0
24/04:30pm 28.8 24.5 6.8 25 11.9 SE 19 30 10 16 1017.5 1016.0 0.0
24/04:00pm 28.6 24.1 6.1 24 12.0 SE 19 28 10 15 1017.5 1016.0 0.0

Other Formats:

Comma delimited format used in spreadsheet applications
http://www.bom.gov.au/fwo/IDW60801/IDW60801.94417.axf

JavaScript Object Notation format (JSON) in row-major order
http://www.bom.gov.au/fwo/IDW60801/IDW60801.94417.json